Saint Simons Island, Georgia
Current Conditions -  °F | °C
As of 10:53 AM on Sunday 21 Dec 2014 (Local Time) from KSSI Reporting Station
Overcast Overcast  
Wind Chill: 55°   Ceiling: 600
Heat Index: 55°   Visibility: 8mi
Dew Point: 53°   Wind: 10mph
Humidity: 93%   Direction: 40°NE
Pressure: 30.17"   Gusts: 20mph
Location:  31.15°N, 81.38°W
Report Text: KSSI 211553Z AUTO 04009G17KT 8SM OVC006 13/12 A3017 RMK AO2 SLP215 T01280117
Loading
Personal Weather Stations






























Interactive Weather Map New forecast layout! Learn more

10-Day Weather Forecast

Advertisements
Track Severe Weather on mobile